Brook Park, Ohio
Current Conditions -  °F | °C
As of 3:51 AM on Wednesday 22 Oct 2014 (Local Time) from KCLE Reporting Station
Overcast Overcast  
Wind Chill: 43°   Ceiling: 1400
Heat Index: 48°   Visibility: 10mi
Dew Point: 44°   Wind: 10mph
Humidity: 86%   Direction: 30°NNE
Pressure: 30.16"   Gusts: NA
Location:  41.4°N, 81.82°W
Report Text: KCLE 220751Z 03009KT 10SM OVC014 09/07 A3016 RMK AO2 RAE0655 SLP217 P0000 T00890067 $
Loading
Personal Weather Stations






























Interactive Weather Map
Tropical Storm Tracking
New forecast layout! Learn more

10-Day Weather Forecast

Advertisements
Track Severe Weather on mobile